Alton, TX

3:06 PM CDT on September 17, 2014 (GMT -0500)
Whitewing | Change Station
CLOSE
Current Station
Personal Weather Station
Location: McAllen, TX
Elevation: 138 ft
Nearby Weather Stations

Elev 138 ft 26.23 °N, 98.24 °W | Updated 12 seconds ago

Clear
Clear
93.2 °F
Feels Like 107 °F
N
1.0
Wind Variable Wind from ENE
Gusts 5.0 mph

Today
High -- | Low -- °F
--% Chance of Precip.
Yesterday
High -- | Low -- °F
Precip. -- in
7:19 AM 7:35 PM
Waning Crescent, 33% visible
Pressure 29.87 in
Visibility 10.0 miles
Clouds Few 3800 ft
Heat Index 107 °F
Dew Point 77 °F
Humidity 59%
Rainfall 0.00 in
Snow Depth Not available.
UV 9 out of 12
Pollen 9.60 out of 12
Ozone Good
PM2.5 Good
Flu Activity Not available.
METAR KMFE 171953Z 15010G16KT 10SM FEW038 32/24 A2987 RMK AO2 SLP113 T03220244

More Conditions Fewer Conditions

Pressure 29.87 in
Visibility 10.0 miles
Clouds Few 3800 ft
Heat Index 107 °F
Dew Point 77 °F
Humidity 59%
Rainfall 0.00 in
Snow Depth Not available.
UV 9 out of 12
Pollen 9.60 out of 12
Ozone Good
PM2.5 Good
Flu Activity Not available.
METAR KMFE 171953Z 15010G16KT 10SM FEW038 32/24 A2987 RMK AO2 SLP113 T03220244

More Conditions Fewer Conditions

10-Day Weather Forecast

Almanac

Astronomy

Sep. 17, 2014 Rise Set
Actual Time 7:19 AM CDT 7:35 PM CDT
Civil Twilight 6:56 AM CDT 7:58 PM CDT
Nautical Twilight 6:29 AM CDT 8:25 PM CDT
Astronomical Twilight 6:02 AM CDT 8:52 PM CDT
Moon 1:45 AM CDT 3:23 PM CDT
Length of Visible Light 13h 01m
Length of Day
12h 15m
Tomorrow will be 1m 32s shorter.
Waning Crescent, 33% of the Moon is Illuminated
Today
Waning Crescent
Sep 24
New
Oct 1
First Quarter
Oct 8
Full
Oct 15
Last Quarter

Today's Extremes

State Highs State Lows

Community

WunderPhotos

Upload Photos

1,754,154 photos uploaded!

Nearby

Air Quality

  Air Quality AQ Index Pollutant
Yesterday Good
PM2.5
Yesterday Good
OZONE
Current Good
PM2.5
Current Good
OZONE
Wednesday Good
PM10
Wednesday Good
OZONE
Thursday Good
PM10
Thursday Good
OZONE
Friday Good
PM10
Friday Good
OZONE
Saturday Good
PM10
Saturday Good
OZONE

Snow Depth

Station Depth Elevation
No new snow has been reported.

Earthquake Activity

City Distance Mag. Time & Date
No recent earthquake activity has been reported nearby.
Minimum magnitude displayed is 2.5.

Coastal Water Temperatures

Place Temperature
No Stations Reporting

Nearby Weather Stations